sensor_id;sensor_type;location;lat;lon;timestamp;P1;durP1;ratioP1;P2;durP2;ratioP2
31872;SDS011;22407;42.820;23.374;2024-02-26T00:00:35;16.13;;;7.60;;
31872;SDS011;22407;42.820;23.374;2024-02-26T00:03:01;36.67;;;13.18;;
31872;SDS011;22407;42.820;23.374;2024-02-26T00:05:26;46.33;;;16.77;;
31872;SDS011;22407;42.820;23.374;2024-02-26T00:07:52;42.22;;;16.80;;
31872;SDS011;22407;42.820;23.374;2024-02-26T00:10:17;29.83;;;13.13;;
31872;SDS011;22407;42.820;23.374;2024-02-26T00:12:43;60.85;;;22.33;;
31872;SDS011;22407;42.820;23.374;2024-02-26T00:15:09;52.47;;;20.17;;
31872;SDS011;22407;42.820;23.374;2024-02-26T00:17:35;29.33;;;13.02;;
31872;SDS011;22407;42.820;23.374;2024-02-26T00:20:01;20.00;;;9.73;;
31872;SDS011;22407;42.820;23.374;2024-02-26T00:22:30;18.00;;;8.50;;
31872;SDS011;22407;42.820;23.374;2024-02-26T00:24:56;34.80;;;13.10;;
31872;SDS011;22407;42.820;23.374;2024-02-26T00:27:22;39.07;;;15.57;;
31872;SDS011;22407;42.820;23.374;2024-02-26T00:29:47;41.23;;;16.53;;
31872;SDS011;22407;42.820;23.374;2024-02-26T00:32:13;24.25;;;11.65;;
31872;SDS011;22407;42.820;23.374;2024-02-26T00:34:39;23.30;;;10.87;;
31872;SDS011;22407;42.820;23.374;2024-02-26T00:37:04;29.50;;;14.00;;
31872;SDS011;22407;42.820;23.374;2024-02-26T00:39:30;29.37;;;13.50;;
31872;SDS011;22407;42.820;23.374;2024-02-26T00:41:55;33.77;;;16.27;;
31872;SDS011;22407;42.820;23.374;2024-02-26T00:44:21;31.57;;;15.27;;
31872;SDS011;22407;42.820;23.374;2024-02-26T00:46:46;29.53;;;14.70;;
31872;SDS011;22407;42.820;23.374;2024-02-26T00:49:12;28.80;;;13.10;;
31872;SDS011;22407;42.820;23.374;2024-02-26T00:51:37;35.00;;;15.90;;
31872;SDS011;22407;42.820;23.374;2024-02-26T00:54:03;27.60;;;12.87;;
31872;SDS011;22407;42.820;23.374;2024-02-26T00:56:29;25.90;;;12.05;;
31872;SDS011;22407;42.820;23.374;2024-02-26T00:58:54;27.43;;;12.97;;
31872;SDS011;22407;42.820;23.374;2024-02-26T01:01:20;28.13;;;13.30;;
31872;SDS011;22407;42.820;23.374;2024-02-26T01:03:45;29.17;;;13.35;;
31872;SDS011;22407;42.820;23.374;2024-02-26T01:06:11;27.73;;;13.53;;
31872;SDS011;22407;42.820;23.374;2024-02-26T01:08:36;32.93;;;14.00;;
31872;SDS011;22407;42.820;23.374;2024-02-26T01:11:02;29.20;;;13.07;;
31872;SDS011;22407;42.820;23.374;2024-02-26T01:13:28;27.85;;;12.50;;
31872;SDS011;22407;42.820;23.374;2024-02-26T01:15:54;22.75;;;10.93;;
31872;SDS011;22407;42.820;23.374;2024-02-26T01:18:20;22.10;;;10.17;;
31872;SDS011;22407;42.820;23.374;2024-02-26T01:20:45;18.27;;;8.63;;
31872;SDS011;22407;42.820;23.374;2024-02-26T01:23:12;23.90;;;10.80;;
31872;SDS011;22407;42.820;23.374;2024-02-26T01:25:37;22.45;;;10.73;;
31872;SDS011;22407;42.820;23.374;2024-02-26T01:28:04;21.83;;;10.20;;
31872;SDS011;22407;42.820;23.374;2024-02-26T01:30:30;30.33;;;12.10;;
31872;SDS011;22407;42.820;23.374;2024-02-26T01:32:56;22.83;;;10.50;;
31872;SDS011;22407;42.820;23.374;2024-02-26T01:35:22;21.73;;;10.03;;
31872;SDS011;22407;42.820;23.374;2024-02-26T01:37:47;19.95;;;9.80;;
31872;SDS011;22407;42.820;23.374;2024-02-26T01:40:13;23.47;;;11.80;;
31872;SDS011;22407;42.820;23.374;2024-02-26T01:42:43;20.23;;;9.90;;
31872;SDS011;22407;42.820;23.374;2024-02-26T01:45:12;17.25;;;8.73;;
31872;SDS011;22407;42.820;23.374;2024-02-26T01:47:41;16.33;;;8.32;;
31872;SDS011;22407;42.820;23.374;2024-02-26T01:50:07;19.60;;;8.90;;
31872;SDS011;22407;42.820;23.374;2024-02-26T01:52:33;17.27;;;9.20;;
31872;SDS011;22407;42.820;23.374;2024-02-26T01:54:59;17.77;;;9.50;;
31872;SDS011;22407;42.820;23.374;2024-02-26T01:57:27;19.83;;;10.10;;
31872;SDS011;22407;42.820;23.374;2024-02-26T01:59:53;31.23;;;13.98;;
31872;SDS011;22407;42.820;23.374;2024-02-26T02:02:19;33.70;;;14.80;;
31872;SDS011;22407;42.820;23.374;2024-02-26T02:04:45;27.92;;;13.05;;
31872;SDS011;22407;42.820;23.374;2024-02-26T02:07:11;35.50;;;18.55;;
31872;SDS011;22407;42.820;23.374;2024-02-26T02:09:37;37.17;;;17.40;;
31872;SDS011;22407;42.820;23.374;2024-02-26T02:12:03;36.58;;;17.80;;
31872;SDS011;22407;42.820;23.374;2024-02-26T02:14:29;36.63;;;17.95;;
31872;SDS011;22407;42.820;23.374;2024-02-26T02:16:55;32.50;;;16.77;;
31872;SDS011;22407;42.820;23.374;2024-02-26T02:19:21;30.98;;;16.85;;
31872;SDS011;22407;42.820;23.374;2024-02-26T02:21:46;31.80;;;15.93;;
31872;SDS011;22407;42.820;23.374;2024-02-26T02:24:12;35.67;;;16.93;;
31872;SDS011;22407;42.820;23.374;2024-02-26T02:26:37;31.58;;;15.90;;
31872;SDS011;22407;42.820;23.374;2024-02-26T02:29:03;35.30;;;17.30;;
31872;SDS011;22407;42.820;23.374;2024-02-26T02:31:29;32.78;;;16.20;;
31872;SDS011;22407;42.820;23.374;2024-02-26T02:33:55;30.65;;;15.02;;
31872;SDS011;22407;42.820;23.374;2024-02-26T02:36:21;31.52;;;15.23;;
31872;SDS011;22407;42.820;23.374;2024-02-26T02:38:50;32.80;;;16.10;;
31872;SDS011;22407;42.820;23.374;2024-02-26T02:41:16;50.80;;;24.05;;
31872;SDS011;22407;42.820;23.374;2024-02-26T02:43:42;36.50;;;17.87;;
31872;SDS011;22407;42.820;23.374;2024-02-26T02:46:07;32.97;;;16.70;;
31872;SDS011;22407;42.820;23.374;2024-02-26T02:48:33;28.80;;;14.98;;
31872;SDS011;22407;42.820;23.374;2024-02-26T02:50:58;29.60;;;15.37;;
31872;SDS011;22407;42.820;23.374;2024-02-26T02:53:24;33.05;;;15.70;;
31872;SDS011;22407;42.820;23.374;2024-02-26T02:55:49;32.03;;;15.87;;
31872;SDS011;22407;42.820;23.374;2024-02-26T02:58:15;29.02;;;14.13;;
31872;SDS011;22407;42.820;23.374;2024-02-26T03:00:43;26.37;;;12.90;;
31872;SDS011;22407;42.820;23.374;2024-02-26T03:03:09;29.38;;;14.48;;
31872;SDS011;22407;42.820;23.374;2024-02-26T03:05:34;29.30;;;14.43;;
31872;SDS011;22407;42.820;23.374;2024-02-26T03:08:00;29.40;;;13.57;;
31872;SDS011;22407;42.820;23.374;2024-02-26T03:10:25;26.35;;;12.68;;
31872;SDS011;22407;42.820;23.374;2024-02-26T03:12:51;27.50;;;13.20;;
31872;SDS011;22407;42.820;23.374;2024-02-26T03:15:17;24.45;;;12.50;;
31872;SDS011;22407;42.820;23.374;2024-02-26T03:17:42;25.87;;;13.20;;
31872;SDS011;22407;42.820;23.374;2024-02-26T03:20:08;24.97;;;12.83;;
31872;SDS011;22407;42.820;23.374;2024-02-26T03:22:34;30.05;;;13.80;;
31872;SDS011;22407;42.820;23.374;2024-02-26T03:25:00;26.02;;;13.63;;
31872;SDS011;22407;42.820;23.374;2024-02-26T03:27:26;29.47;;;15.13;;
31872;SDS011;22407;42.820;23.374;2024-02-26T03:29:52;31.02;;;14.98;;
31872;SDS011;22407;42.820;23.374;2024-02-26T03:32:18;128.87;;;37.53;;
31872;SDS011;22407;42.820;23.374;2024-02-26T03:34:43;83.32;;;29.58;;
31872;SDS011;22407;42.820;23.374;2024-02-26T03:37:09;41.80;;;17.83;;
31872;SDS011;22407;42.820;23.374;2024-02-26T03:39:36;30.13;;;14.30;;
31872;SDS011;22407;42.820;23.374;2024-02-26T03:42:02;23.83;;;12.43;;
31872;SDS011;22407;42.820;23.374;2024-02-26T03:44:28;22.27;;;10.43;;
31872;SDS011;22407;42.820;23.374;2024-02-26T03:46:54;19.95;;;9.82;;
31872;SDS011;22407;42.820;23.374;2024-02-26T03:49:20;20.48;;;10.20;;
31872;SDS011;22407;42.820;23.374;2024-02-26T03:51:47;22.33;;;12.57;;
31872;SDS011;22407;42.820;23.374;2024-02-26T03:54:12;23.05;;;11.68;;
31872;SDS011;22407;42.820;23.374;2024-02-26T03:56:39;22.85;;;11.73;;
31872;SDS011;22407;42.820;23.374;2024-02-26T03:59:04;50.40;;;17.50;;
31872;SDS011;22407;42.820;23.374;2024-02-26T04:01:30;41.10;;;15.38;;
31872;SDS011;22407;42.820;23.374;2024-02-26T04:03:56;28.97;;;12.40;;
31872;SDS011;22407;42.820;23.374;2024-02-26T04:06:21;21.00;;;10.25;;
31872;SDS011;22407;42.820;23.374;2024-02-26T04:08:48;20.83;;;10.13;;
31872;SDS011;22407;42.820;23.374;2024-02-26T04:11:13;29.77;;;14.90;;
31872;SDS011;22407;42.820;23.374;2024-02-26T04:13:42;21.17;;;10.80;;
31872;SDS011;22407;42.820;23.374;2024-02-26T04:16:11;16.95;;;8.98;;
31872;SDS011;22407;42.820;23.374;2024-02-26T04:18:37;17.07;;;7.27;;
31872;SDS011;22407;42.820;23.374;2024-02-26T04:21:03;18.52;;;9.05;;
31872;SDS011;22407;42.820;23.374;2024-02-26T04:23:30;23.20;;;10.50;;
31872;SDS011;22407;42.820;23.374;2024-02-26T04:25:56;40.53;;;16.43;;
31872;SDS011;22407;42.820;23.374;2024-02-26T04:28:21;22.23;;;9.95;;
31872;SDS011;22407;42.820;23.374;2024-02-26T04:30:47;32.40;;;12.77;;
31872;SDS011;22407;42.820;23.374;2024-02-26T04:33:13;24.83;;;10.48;;
31872;SDS011;22407;42.820;23.374;2024-02-26T04:35:39;32.45;;;14.75;;
31872;SDS011;22407;42.820;23.374;2024-02-26T04:38:04;32.40;;;15.50;;
31872;SDS011;22407;42.820;23.374;2024-02-26T04:40:30;31.73;;;15.13;;
31872;SDS011;22407;42.820;23.374;2024-02-26T04:42:55;28.35;;;14.15;;
31872;SDS011;22407;42.820;23.374;2024-02-26T04:45:21;31.30;;;14.57;;
31872;SDS011;22407;42.820;23.374;2024-02-26T04:47:46;68.20;;;25.87;;
31872;SDS011;22407;42.820;23.374;2024-02-26T04:50:12;39.27;;;16.03;;
31872;SDS011;22407;42.820;23.374;2024-02-26T04:52:37;21.60;;;9.30;;
31872;SDS011;22407;42.820;23.374;2024-02-26T04:55:03;19.23;;;9.17;;
31872;SDS011;22407;42.820;23.374;2024-02-26T04:57:29;31.55;;;16.90;;
31872;SDS011;22407;42.820;23.374;2024-02-26T04:59:54;56.13;;;27.70;;
31872;SDS011;22407;42.820;23.374;2024-02-26T05:02:20;47.97;;;24.33;;
31872;SDS011;22407;42.820;23.374;2024-02-26T05:04:45;39.72;;;19.08;;
31872;SDS011;22407;42.820;23.374;2024-02-26T05:07:11;34.27;;;17.10;;
31872;SDS011;22407;42.820;23.374;2024-02-26T05:09:37;34.13;;;18.27;;
31872;SDS011;22407;42.820;23.374;2024-02-26T05:12:03;42.23;;;19.57;;
31872;SDS011;22407;42.820;23.374;2024-02-26T05:14:28;35.80;;;19.33;;
31872;SDS011;22407;42.820;23.374;2024-02-26T05:16:54;37.33;;;19.73;;
31872;SDS011;22407;42.820;23.374;2024-02-26T05:19:20;41.60;;;20.43;;
31872;SDS011;22407;42.820;23.374;2024-02-26T05:21:45;42.47;;;21.23;;
31872;SDS011;22407;42.820;23.374;2024-02-26T05:24:12;40.75;;;20.15;;
31872;SDS011;22407;42.820;23.374;2024-02-26T05:26:38;43.07;;;20.80;;
31872;SDS011;22407;42.820;23.374;2024-02-26T05:29:03;42.10;;;20.35;;
31872;SDS011;22407;42.820;23.374;2024-02-26T05:31:29;41.30;;;20.40;;
31872;SDS011;22407;42.820;23.374;2024-02-26T05:33:55;44.10;;;20.30;;
31872;SDS011;22407;42.820;23.374;2024-02-26T05:36:21;38.72;;;19.90;;
31872;SDS011;22407;42.820;23.374;2024-02-26T05:38:47;35.17;;;18.65;;
31872;SDS011;22407;42.820;23.374;2024-02-26T05:41:14;40.38;;;20.95;;
31872;SDS011;22407;42.820;23.374;2024-02-26T05:43:41;40.03;;;21.90;;
31872;SDS011;22407;42.820;23.374;2024-02-26T05:46:06;39.88;;;21.25;;
31872;SDS011;22407;42.820;23.374;2024-02-26T05:48:32;39.63;;;20.33;;
31872;SDS011;22407;42.820;23.374;2024-02-26T05:50:57;43.07;;;20.97;;
31872;SDS011;22407;42.820;23.374;2024-02-26T05:53:22;39.80;;;20.40;;
31872;SDS011;22407;42.820;23.374;2024-02-26T05:55:48;44.00;;;21.80;;
31872;SDS011;22407;42.820;23.374;2024-02-26T05:58:13;37.47;;;20.40;;
31872;SDS011;22407;42.820;23.374;2024-02-26T06:00:39;46.70;;;22.70;;
31872;SDS011;22407;42.820;23.374;2024-02-26T06:03:04;55.90;;;26.05;;
31872;SDS011;22407;42.820;23.374;2024-02-26T06:05:30;70.60;;;31.17;;
31872;SDS011;22407;42.820;23.374;2024-02-26T06:07:56;48.70;;;23.73;;
31872;SDS011;22407;42.820;23.374;2024-02-26T06:10:21;45.43;;;24.40;;
31872;SDS011;22407;42.820;23.374;2024-02-26T06:12:47;48.87;;;24.23;;
31872;SDS011;22407;42.820;23.374;2024-02-26T06:15:13;50.37;;;23.53;;
31872;SDS011;22407;42.820;23.374;2024-02-26T06:17:41;107.87;;;40.70;;
31872;SDS011;22407;42.820;23.374;2024-02-26T06:20:07;74.00;;;32.85;;
31872;SDS011;22407;42.820;23.374;2024-02-26T06:22:39;61.10;;;26.40;;
31872;SDS011;22407;42.820;23.374;2024-02-26T06:25:07;62.17;;;27.25;;
31872;SDS011;22407;42.820;23.374;2024-02-26T06:27:34;48.10;;;23.90;;
31872;SDS011;22407;42.820;23.374;2024-02-26T06:30:00;52.63;;;25.13;;
31872;SDS011;22407;42.820;23.374;2024-02-26T06:32:25;66.38;;;31.63;;
31872;SDS011;22407;42.820;23.374;2024-02-26T06:34:54;66.35;;;33.17;;
31872;SDS011;22407;42.820;23.374;2024-02-26T06:37:20;63.73;;;30.13;;
31872;SDS011;22407;42.820;23.374;2024-02-26T06:39:45;61.40;;;30.88;;
31872;SDS011;22407;42.820;23.374;2024-02-26T06:42:11;61.50;;;30.35;;
31872;SDS011;22407;42.820;23.374;2024-02-26T06:44:37;62.20;;;30.27;;
31872;SDS011;22407;42.820;23.374;2024-02-26T06:47:03;61.72;;;30.77;;
31872;SDS011;22407;42.820;23.374;2024-02-26T06:49:29;62.60;;;30.00;;
31872;SDS011;22407;42.820;23.374;2024-02-26T06:51:55;60.95;;;29.17;;
31872;SDS011;22407;42.820;23.374;2024-02-26T06:54:20;61.50;;;27.95;;
31872;SDS011;22407;42.820;23.374;2024-02-26T06:56:46;60.73;;;28.10;;
31872;SDS011;22407;42.820;23.374;2024-02-26T06:59:12;61.47;;;27.50;;
31872;SDS011;22407;42.820;23.374;2024-02-26T07:01:39;58.45;;;26.45;;
31872;SDS011;22407;42.820;23.374;2024-02-26T07:04:06;54.93;;;24.90;;
31872;SDS011;22407;42.820;23.374;2024-02-26T07:06:32;50.10;;;24.30;;
31872;SDS011;22407;42.820;23.374;2024-02-26T07:08:57;46.20;;;21.97;;
31872;SDS011;22407;42.820;23.374;2024-02-26T07:11:23;42.40;;;21.87;;
31872;SDS011;22407;42.820;23.374;2024-02-26T07:13:48;46.28;;;21.27;;
31872;SDS011;22407;42.820;23.374;2024-02-26T07:16:15;40.72;;;19.92;;
31872;SDS011;22407;42.820;23.374;2024-02-26T07:18:40;40.63;;;19.00;;
31872;SDS011;22407;42.820;23.374;2024-02-26T07:21:06;36.13;;;18.27;;
31872;SDS011;22407;42.820;23.374;2024-02-26T07:23:32;35.53;;;17.95;;
31872;SDS011;22407;42.820;23.374;2024-02-26T07:25:58;36.13;;;17.80;;
31872;SDS011;22407;42.820;23.374;2024-02-26T07:28:24;38.88;;;17.55;;
31872;SDS011;22407;42.820;23.374;2024-02-26T07:30:50;31.80;;;16.03;;
31872;SDS011;22407;42.820;23.374;2024-02-26T07:33:15;41.28;;;18.17;;
31872;SDS011;22407;42.820;23.374;2024-02-26T07:35:41;38.33;;;17.93;;
31872;SDS011;22407;42.820;23.374;2024-02-26T07:38:07;37.08;;;18.00;;
31872;SDS011;22407;42.820;23.374;2024-02-26T07:40:33;39.97;;;19.47;;
31872;SDS011;22407;42.820;23.374;2024-02-26T07:42:58;44.80;;;22.43;;
31872;SDS011;22407;42.820;23.374;2024-02-26T07:45:24;42.33;;;20.70;;
31872;SDS011;22407;42.820;23.374;2024-02-26T07:47:49;42.27;;;21.23;;
31872;SDS011;22407;42.820;23.374;2024-02-26T07:50:17;37.38;;;20.50;;
31872;SDS011;22407;42.820;23.374;2024-02-26T07:52:43;41.03;;;20.57;;
31872;SDS011;22407;42.820;23.374;2024-02-26T07:55:09;39.97;;;19.52;;
31872;SDS011;22407;42.820;23.374;2024-02-26T07:57:34;39.78;;;19.88;;
31872;SDS011;22407;42.820;23.374;2024-02-26T08:00:00;40.50;;;18.57;;
31872;SDS011;22407;42.820;23.374;2024-02-26T08:02:26;36.05;;;17.30;;
31872;SDS011;22407;42.820;23.374;2024-02-26T08:04:52;39.73;;;18.50;;
31872;SDS011;22407;42.820;23.374;2024-02-26T08:07:17;37.63;;;19.13;;
31872;SDS011;22407;42.820;23.374;2024-02-26T08:09:43;31.60;;;15.10;;
31872;SDS011;22407;42.820;23.374;2024-02-26T08:12:08;29.53;;;14.23;;
31872;SDS011;22407;42.820;23.374;2024-02-26T08:14:34;21.60;;;11.07;;
31872;SDS011;22407;42.820;23.374;2024-02-26T08:16:59;23.92;;;11.02;;
31872;SDS011;22407;42.820;23.374;2024-02-26T08:19:25;27.30;;;12.47;;
31872;SDS011;22407;42.820;23.374;2024-02-26T08:21:51;26.50;;;13.27;;
31872;SDS011;22407;42.820;23.374;2024-02-26T08:24:17;20.23;;;9.60;;
31872;SDS011;22407;42.820;23.374;2024-02-26T08:26:42;20.40;;;7.75;;
31872;SDS011;22407;42.820;23.374;2024-02-26T08:29:08;17.97;;;7.00;;
31872;SDS011;22407;42.820;23.374;2024-02-26T08:31:33;17.70;;;7.30;;
31872;SDS011;22407;42.820;23.374;2024-02-26T08:34:02;12.63;;;6.15;;
31872;SDS011;22407;42.820;23.374;2024-02-26T08:36:28;15.18;;;6.80;;
31872;SDS011;22407;42.820;23.374;2024-02-26T08:38:54;15.20;;;5.60;;
31872;SDS011;22407;42.820;23.374;2024-02-26T08:41:19;13.68;;;6.07;;
31872;SDS011;22407;42.820;23.374;2024-02-26T08:43:45;14.37;;;6.47;;
31872;SDS011;22407;42.820;23.374;2024-02-26T08:46:12;13.60;;;6.40;;
31872;SDS011;22407;42.820;23.374;2024-02-26T08:48:41;14.45;;;6.60;;
31872;SDS011;22407;42.820;23.374;2024-02-26T08:51:07;16.27;;;6.57;;
31872;SDS011;22407;42.820;23.374;2024-02-26T08:53:33;13.32;;;5.82;;
31872;SDS011;22407;42.820;23.374;2024-02-26T08:55:59;15.57;;;6.53;;
31872;SDS011;22407;42.820;23.374;2024-02-26T08:58:24;13.40;;;5.90;;
31872;SDS011;22407;42.820;23.374;2024-02-26T09:00:50;13.10;;;5.60;;
31872;SDS011;22407;42.820;23.374;2024-02-26T09:03:15;12.67;;;6.13;;
31872;SDS011;22407;42.820;23.374;2024-02-26T09:05:41;15.73;;;6.32;;
31872;SDS011;22407;42.820;23.374;2024-02-26T09:08:06;13.77;;;6.40;;
31872;SDS011;22407;42.820;23.374;2024-02-26T09:10:32;14.20;;;5.87;;
31872;SDS011;22407;42.820;23.374;2024-02-26T09:12:58;13.85;;;6.18;;
31872;SDS011;22407;42.820;23.374;2024-02-26T09:15:23;14.13;;;6.67;;
31872;SDS011;22407;42.820;23.374;2024-02-26T09:17:49;14.23;;;6.50;;
31872;SDS011;22407;42.820;23.374;2024-02-26T09:20:15;12.87;;;6.30;;
31872;SDS011;22407;42.820;23.374;2024-02-26T09:22:45;16.07;;;6.63;;
31872;SDS011;22407;42.820;23.374;2024-02-26T09:25:11;19.02;;;7.90;;
31872;SDS011;22407;42.820;23.374;2024-02-26T09:27:37;17.80;;;7.70;;
31872;SDS011;22407;42.820;23.374;2024-02-26T09:30:02;19.13;;;7.38;;
31872;SDS011;22407;42.820;23.374;2024-02-26T09:32:28;18.80;;;8.47;;
31872;SDS011;22407;42.820;23.374;2024-02-26T09:34:55;20.88;;;9.43;;
31872;SDS011;22407;42.820;23.374;2024-02-26T09:37:21;20.38;;;9.57;;
31872;SDS011;22407;42.820;23.374;2024-02-26T09:39:46;21.40;;;10.27;;
31872;SDS011;22407;42.820;23.374;2024-02-26T09:42:12;20.25;;;8.15;;
31872;SDS011;22407;42.820;23.374;2024-02-26T09:44:39;19.60;;;8.47;;
31872;SDS011;22407;42.820;23.374;2024-02-26T09:47:10;20.80;;;9.73;;
31872;SDS011;22407;42.820;23.374;2024-02-26T09:49:42;20.02;;;8.55;;
31872;SDS011;22407;42.820;23.374;2024-02-26T09:52:08;19.52;;;8.25;;
31872;SDS011;22407;42.820;23.374;2024-02-26T09:54:37;17.25;;;8.50;;
31872;SDS011;22407;42.820;23.374;2024-02-26T09:57:03;17.83;;;8.43;;
31872;SDS011;22407;42.820;23.374;2024-02-26T09:59:39;18.17;;;8.77;;
31872;SDS011;22407;42.820;23.374;2024-02-26T10:02:08;18.52;;;8.32;;
31872;SDS011;22407;42.820;23.374;2024-02-26T10:04:37;20.17;;;8.15;;
31872;SDS011;22407;42.820;23.374;2024-02-26T10:07:04;15.25;;;7.50;;
31872;SDS011;22407;42.820;23.374;2024-02-26T10:09:34;16.73;;;7.10;;
31872;SDS011;22407;42.820;23.374;2024-02-26T10:12:00;13.70;;;6.05;;
31872;SDS011;22407;42.820;23.374;2024-02-26T10:14:26;13.70;;;6.82;;
31872;SDS011;22407;42.820;23.374;2024-02-26T10:16:52;13.83;;;6.73;;
31872;SDS011;22407;42.820;23.374;2024-02-26T10:19:30;13.07;;;6.33;;
31872;SDS011;22407;42.820;23.374;2024-02-26T10:21:56;12.57;;;6.73;;
31872;SDS011;22407;42.820;23.374;2024-02-26T10:24:23;12.18;;;5.30;;
31872;SDS011;22407;42.820;23.374;2024-02-26T10:26:50;12.65;;;4.10;;
31872;SDS011;22407;42.820;23.374;2024-02-26T10:29:18;10.20;;;3.85;;
31872;SDS011;22407;42.820;23.374;2024-02-26T10:31:44;10.27;;;3.88;;
31872;SDS011;22407;42.820;23.374;2024-02-26T10:34:10;10.57;;;4.00;;
31872;SDS011;22407;42.820;23.374;2024-02-26T10:36:35;8.60;;;3.90;;
31872;SDS011;22407;42.820;23.374;2024-02-26T10:39:02;10.55;;;3.72;;
31872;SDS011;22407;42.820;23.374;2024-02-26T10:41:29;11.98;;;4.38;;
31872;SDS011;22407;42.820;23.374;2024-02-26T10:43:55;10.50;;;4.03;;
31872;SDS011;22407;42.820;23.374;2024-02-26T10:46:20;11.43;;;4.93;;
31872;SDS011;22407;42.820;23.374;2024-02-26T10:48:49;11.25;;;4.07;;
31872;SDS011;22407;42.820;23.374;2024-02-26T10:51:16;9.87;;;4.07;;
31872;SDS011;22407;42.820;23.374;2024-02-26T10:53:47;10.05;;;3.38;;
31872;SDS011;22407;42.820;23.374;2024-02-26T10:56:18;11.23;;;4.25;;
31872;SDS011;22407;42.820;23.374;2024-02-26T10:58:45;9.75;;;3.80;;
31872;SDS011;22407;42.820;23.374;2024-02-26T11:01:12;10.60;;;3.70;;
31872;SDS011;22407;42.820;23.374;2024-02-26T11:03:38;10.63;;;4.13;;
31872;SDS011;22407;42.820;23.374;2024-02-26T11:06:04;8.80;;;3.70;;
31872;SDS011;22407;42.820;23.374;2024-02-26T11:08:30;9.15;;;4.10;;
31872;SDS011;22407;42.820;23.374;2024-02-26T11:10:57;8.15;;;3.63;;
31872;SDS011;22407;42.820;23.374;2024-02-26T11:13:23;10.37;;;3.80;;
31872;SDS011;22407;42.820;23.374;2024-02-26T11:15:55;9.20;;;4.05;;
31872;SDS011;22407;42.820;23.374;2024-02-26T11:18:23;10.10;;;4.03;;
31872;SDS011;22407;42.820;23.374;2024-02-26T11:20:48;9.15;;;3.75;;
31872;SDS011;22407;42.820;23.374;2024-02-26T11:23:16;9.93;;;4.18;;
31872;SDS011;22407;42.820;23.374;2024-02-26T11:25:41;9.57;;;4.77;;
31872;SDS011;22407;42.820;23.374;2024-02-26T11:28:12;11.52;;;5.00;;
31872;SDS011;22407;42.820;23.374;2024-02-26T11:30:43;10.57;;;4.53;;
31872;SDS011;22407;42.820;23.374;2024-02-26T11:33:12;16.20;;;7.13;;
31872;SDS011;22407;42.820;23.374;2024-02-26T11:35:39;54.30;;;20.83;;
31872;SDS011;22407;42.820;23.374;2024-02-26T11:38:05;92.07;;;35.10;;
31872;SDS011;22407;42.820;23.374;2024-02-26T11:40:32;23.85;;;9.98;;
31872;SDS011;22407;42.820;23.374;2024-02-26T11:43:03;13.00;;;5.90;;
31872;SDS011;22407;42.820;23.374;2024-02-26T11:48:16;14.00;;;6.47;;
31872;SDS011;22407;42.820;23.374;2024-02-26T11:50:47;10.65;;;4.63;;
31872;SDS011;22407;42.820;23.374;2024-02-26T11:53:32;18.60;;;9.13;;
31872;SDS011;22407;42.820;23.374;2024-02-26T11:58:44;21.13;;;10.13;;
31872;SDS011;22407;42.820;23.374;2024-02-26T12:06:49;18.33;;;8.50;;
31872;SDS011;22407;42.820;23.374;2024-02-26T12:12:02;11.75;;;4.75;;
31872;SDS011;22407;42.820;23.374;2024-02-26T12:14:29;9.47;;;4.10;;
31872;SDS011;22407;42.820;23.374;2024-02-26T12:16:58;9.20;;;3.90;;
31872;SDS011;22407;42.820;23.374;2024-02-26T12:19:24;11.75;;;4.65;;
31872;SDS011;22407;42.820;23.374;2024-02-26T12:21:53;11.80;;;4.70;;
31872;SDS011;22407;42.820;23.374;2024-02-26T12:24:22;10.07;;;3.83;;
31872;SDS011;22407;42.820;23.374;2024-02-26T12:26:47;7.82;;;3.35;;
31872;SDS011;22407;42.820;23.374;2024-02-26T12:29:13;9.48;;;2.97;;
31872;SDS011;22407;42.820;23.374;2024-02-26T12:31:39;9.40;;;3.80;;
31872;SDS011;22407;42.820;23.374;2024-02-26T12:34:06;8.75;;;3.60;;
31872;SDS011;22407;42.820;23.374;2024-02-26T12:36:33;8.77;;;4.25;;
31872;SDS011;22407;42.820;23.374;2024-02-26T12:39:00;8.40;;;3.87;;
31872;SDS011;22407;42.820;23.374;2024-02-26T12:41:27;9.63;;;4.00;;
31872;SDS011;22407;42.820;23.374;2024-02-26T12:43:55;10.13;;;4.00;;
31872;SDS011;22407;42.820;23.374;2024-02-26T12:46:21;12.20;;;4.30;;
31872;SDS011;22407;42.820;23.374;2024-02-26T12:48:47;9.83;;;4.70;;
31872;SDS011;22407;42.820;23.374;2024-02-26T12:51:14;9.75;;;4.15;;
31872;SDS011;22407;42.820;23.374;2024-02-26T12:53:41;10.35;;;4.60;;
31872;SDS011;22407;42.820;23.374;2024-02-26T12:56:09;9.57;;;4.57;;
31872;SDS011;22407;42.820;23.374;2024-02-26T12:58:36;9.65;;;3.92;;
31872;SDS011;22407;42.820;23.374;2024-02-26T13:01:04;9.93;;;4.65;;
31872;SDS011;22407;42.820;23.374;2024-02-26T13:03:30;9.88;;;3.65;;
31872;SDS011;22407;42.820;23.374;2024-02-26T13:05:56;9.50;;;3.83;;
31872;SDS011;22407;42.820;23.374;2024-02-26T13:08:22;8.15;;;3.50;;
31872;SDS011;22407;42.820;23.374;2024-02-26T13:10:49;10.85;;;3.70;;
31872;SDS011;22407;42.820;23.374;2024-02-26T13:13:16;8.45;;;3.33;;
31872;SDS011;22407;42.820;23.374;2024-02-26T13:15:43;11.25;;;4.28;;
31872;SDS011;22407;42.820;23.374;2024-02-26T13:18:09;10.63;;;4.33;;
31872;SDS011;22407;42.820;23.374;2024-02-26T13:20:36;9.07;;;3.20;;
31872;SDS011;22407;42.820;23.374;2024-02-26T13:23:04;7.93;;;3.30;;
31872;SDS011;22407;42.820;23.374;2024-02-26T13:25:31;9.83;;;4.50;;
31872;SDS011;22407;42.820;23.374;2024-02-26T13:30:33;10.90;;;4.57;;
31872;SDS011;22407;42.820;23.374;2024-02-26T13:33:06;7.93;;;3.60;;
31872;SDS011;22407;42.820;23.374;2024-02-26T13:35:36;8.77;;;3.30;;
31872;SDS011;22407;42.820;23.374;2024-02-26T13:38:02;9.27;;;3.80;;
31872;SDS011;22407;42.820;23.374;2024-02-26T13:40:28;9.60;;;3.70;;
31872;SDS011;22407;42.820;23.374;2024-02-26T13:42:54;11.18;;;3.90;;
31872;SDS011;22407;42.820;23.374;2024-02-26T13:45:19;10.18;;;3.63;;
31872;SDS011;22407;42.820;23.374;2024-02-26T13:47:45;9.13;;;3.60;;
31872;SDS011;22407;42.820;23.374;2024-02-26T13:50:10;11.07;;;4.13;;
31872;SDS011;22407;42.820;23.374;2024-02-26T13:52:36;10.10;;;4.00;;
31872;SDS011;22407;42.820;23.374;2024-02-26T13:55:01;8.93;;;3.33;;
31872;SDS011;22407;42.820;23.374;2024-02-26T13:57:28;8.18;;;3.58;;
31872;SDS011;22407;42.820;23.374;2024-02-26T13:59:54;11.63;;;4.00;;
31872;SDS011;22407;42.820;23.374;2024-02-26T14:02:20;16.77;;;7.57;;
31872;SDS011;22407;42.820;23.374;2024-02-26T14:04:46;9.77;;;3.92;;
31872;SDS011;22407;42.820;23.374;2024-02-26T14:07:12;8.18;;;3.35;;
31872;SDS011;22407;42.820;23.374;2024-02-26T14:09:38;10.15;;;3.63;;
31872;SDS011;22407;42.820;23.374;2024-02-26T14:12:03;8.63;;;3.10;;
31872;SDS011;22407;42.820;23.374;2024-02-26T14:14:29;8.57;;;3.60;;
31872;SDS011;22407;42.820;23.374;2024-02-26T14:16:58;8.43;;;3.30;;
31872;SDS011;22407;42.820;23.374;2024-02-26T14:19:23;8.77;;;3.17;;
31872;SDS011;22407;42.820;23.374;2024-02-26T14:21:49;7.65;;;3.70;;
31872;SDS011;22407;42.820;23.374;2024-02-26T14:24:15;8.40;;;3.80;;
31872;SDS011;22407;42.820;23.374;2024-02-26T14:26:40;11.13;;;3.70;;